createdAt,value
2019-06-08T00:00:49.847Z,19.30
2019-06-08T00:03:18.519Z,19.30
2019-06-08T00:05:45.872Z,19.30
2019-06-08T00:08:14.720Z,19.30
2019-06-08T00:10:41.947Z,19.30
2019-06-08T00:13:08.923Z,19.30
2019-06-08T00:15:36.548Z,19.30
2019-06-08T00:18:04.051Z,19.30
2019-06-08T00:20:31.714Z,19.30
2019-06-08T00:22:59.214Z,19.30
2019-06-08T00:25:26.274Z,19.30
2019-06-08T00:27:53.498Z,19.30
2019-06-08T00:30:20.757Z,19.30
2019-06-08T00:32:47.905Z,19.20
2019-06-08T00:35:16.527Z,19.20
2019-06-08T00:37:43.766Z,19.20
2019-06-08T00:40:11.026Z,19.20
2019-06-08T00:42:38.228Z,19.20
2019-06-08T00:45:05.862Z,19.20
2019-06-08T00:47:47.075Z,19.10
2019-06-08T00:50:02.066Z,19.20
2019-06-08T00:52:29.431Z,19.20
2019-06-08T00:54:56.480Z,19.20
2019-06-08T00:57:23.860Z,19.20
2019-06-08T00:59:50.961Z,19.20
2019-06-08T01:02:18.705Z,19.20
2019-06-08T01:04:46.126Z,19.20
2019-06-08T01:07:13.811Z,19.20
2019-06-08T01:09:41.637Z,19.20
2019-06-08T01:12:09.052Z,19.20
2019-06-08T01:14:36.269Z,19.20
2019-06-08T01:17:03.526Z,19.10
2019-06-08T01:19:30.814Z,19.10
2019-06-08T01:21:58.081Z,19.10
2019-06-08T01:24:25.701Z,19.10
2019-06-08T01:26:53.213Z,19.10
2019-06-08T01:29:22.252Z,19.10
2019-06-08T01:31:50.130Z,19.30
2019-06-08T01:34:17.525Z,19.10
2019-06-08T01:36:44.977Z,19.00
2019-06-08T01:39:12.457Z,19.00
2019-06-08T01:41:39.726Z,19.00
2019-06-08T01:44:06.828Z,19.00
2019-06-08T01:46:34.060Z,19.00
2019-06-08T01:49:01.442Z,19.00
2019-06-08T01:51:28.693Z,19.00
2019-06-08T01:53:55.834Z,19.00
2019-06-08T01:56:24.730Z,19.00
2019-06-08T01:58:51.951Z,19.00
2019-06-08T02:01:19.697Z,18.90
2019-06-08T02:03:46.917Z,18.90
2019-06-08T02:06:14.407Z,18.90
2019-06-08T02:08:41.481Z,18.90
2019-06-08T02:11:08.994Z,18.90
2019-06-08T02:13:36.596Z,18.90
2019-06-08T02:16:04.225Z,18.90
2019-06-08T02:18:41.341Z,18.90
2019-06-08T02:21:00.753Z,18.90
2019-06-08T02:23:28.915Z,18.90
2019-06-08T02:25:56.495Z,18.80
2019-06-08T02:28:23.795Z,18.80
2019-06-08T02:30:50.967Z,18.80
2019-06-08T02:33:18.766Z,18.80
2019-06-08T02:35:46.068Z,18.70
2019-06-08T02:38:13.715Z,18.70
2019-06-08T02:40:41.618Z,18.70
2019-06-08T02:43:10.075Z,18.60
2019-06-08T02:45:38.967Z,18.60
2019-06-08T02:48:06.356Z,18.50
2019-06-08T02:50:50.728Z,18.50
2019-06-08T02:53:18.475Z,18.40
2019-06-08T02:55:46.465Z,18.40
2019-06-08T02:58:15.023Z,18.40
2019-06-08T03:00:45.186Z,18.30
2019-06-08T03:03:13.181Z,18.30
2019-06-08T03:05:41.481Z,18.20
2019-06-08T03:08:10.221Z,18.20
2019-06-08T03:10:40.907Z,18.20
2019-06-08T03:13:09.407Z,18.20
2019-06-08T03:15:38.612Z,18.20
2019-06-08T03:18:06.792Z,18.20
2019-06-08T03:20:35.743Z,18.20
2019-06-08T03:23:03.771Z,18.20
2019-06-08T03:25:33.535Z,18.20
2019-06-08T03:28:01.525Z,18.20
2019-06-08T03:30:28.805Z,18.20
2019-06-08T03:32:57.159Z,18.20
2019-06-08T03:35:24.627Z,18.20
2019-06-08T03:37:52.014Z,18.20
2019-06-08T03:40:19.970Z,18.20
2019-06-08T03:42:48.896Z,18.20
2019-06-08T03:45:16.265Z,18.20
2019-06-08T03:47:45.530Z,18.20
2019-06-08T03:50:13.580Z,18.20
2019-06-08T03:52:42.136Z,18.20
2019-06-08T03:55:11.309Z,18.10
2019-06-08T03:57:40.730Z,18.10
2019-06-08T04:00:13.490Z,18.10
2019-06-08T04:02:39.855Z,18.10
2019-06-08T04:05:08.143Z,18.10
2019-06-08T04:07:35.484Z,18.10
2019-06-08T04:10:03.923Z,18.00
2019-06-08T04:12:31.895Z,18.00
2019-06-08T04:14:59.493Z,18.00
2019-06-08T04:17:27.071Z,18.10
2019-06-08T04:20:09.762Z,18.00
2019-06-08T04:22:23.560Z,18.00
2019-06-08T04:24:50.838Z,18.00
2019-06-08T04:27:19.603Z,18.00
2019-06-08T04:29:47.053Z,17.90
2019-06-08T04:32:14.612Z,17.90
2019-06-08T04:34:42.901Z,17.90
2019-06-08T04:37:10.237Z,17.90
2019-06-08T04:39:38.384Z,17.90
2019-06-08T04:42:05.925Z,17.90
2019-06-08T04:44:33.077Z,17.90
2019-06-08T04:47:00.841Z,17.90
2019-06-08T04:49:28.317Z,17.90
2019-06-08T04:51:55.825Z,17.70
2019-06-08T04:54:23.258Z,17.90
2019-06-08T04:56:50.484Z,17.90
2019-06-08T04:59:17.879Z,17.90
2019-06-08T05:01:45.174Z,17.80
2019-06-08T05:04:12.849Z,17.90
2019-06-08T05:06:41.018Z,17.90
2019-06-08T05:09:08.893Z,17.90
2019-06-08T05:11:36.680Z,17.80
2019-06-08T05:14:04.530Z,17.80
2019-06-08T05:16:31.821Z,17.90
2019-06-08T05:18:59.010Z,17.90
2019-06-08T05:21:26.222Z,17.90
2019-06-08T05:23:58.720Z,17.90
2019-06-08T05:26:22.947Z,17.90
2019-06-08T05:28:50.502Z,17.90
2019-06-08T05:31:18.322Z,17.80
2019-06-08T05:33:47.476Z,17.80
2019-06-08T05:36:15.119Z,17.80
2019-06-08T05:38:43.470Z,17.90
2019-06-08T05:41:10.950Z,17.90
2019-06-08T05:43:39.454Z,17.80
2019-06-08T05:46:07.255Z,17.90
2019-06-08T05:48:34.862Z,17.90
2019-06-08T05:51:04.118Z,17.80
2019-06-08T05:53:31.945Z,17.80
2019-06-08T05:55:59.074Z,17.80
2019-06-08T05:58:26.672Z,17.80
2019-06-08T06:00:54.661Z,17.80
2019-06-08T06:03:22.417Z,17.80
2019-06-08T06:05:50.785Z,17.90
2019-06-08T06:08:19.332Z,17.80
2019-06-08T06:10:46.987Z,17.80
2019-06-08T06:13:14.384Z,17.80
2019-06-08T06:15:42.980Z,17.80
2019-06-08T06:18:10.307Z,17.70
2019-06-08T06:20:37.863Z,17.70
2019-06-08T06:23:05.398Z,17.80
2019-06-08T06:25:33.392Z,17.80
2019-06-08T06:28:00.992Z,17.80
2019-06-08T06:30:28.389Z,17.80
2019-06-08T06:32:56.803Z,17.80
2019-06-08T06:35:24.329Z,17.90
2019-06-08T06:37:52.105Z,17.90
2019-06-08T06:40:19.825Z,17.90
2019-06-08T06:42:48.033Z,17.90
2019-06-08T06:45:15.783Z,17.80
2019-06-08T06:47:44.169Z,17.90
2019-06-08T06:50:11.848Z,17.90
2019-06-08T06:52:39.187Z,17.90
2019-06-08T06:55:06.633Z,17.90
2019-06-08T06:57:36.518Z,17.80
2019-06-08T07:00:04.865Z,17.90
2019-06-08T07:02:32.212Z,17.80
2019-06-08T07:04:59.826Z,17.80
2019-06-08T07:07:27.227Z,17.80
2019-06-08T07:09:54.947Z,17.80
2019-06-08T07:12:22.394Z,17.70
2019-06-08T07:14:51.267Z,17.70
2019-06-08T07:17:18.662Z,17.70
2019-06-08T07:19:46.382Z,17.80
2019-06-08T07:22:13.996Z,17.70
2019-06-08T07:24:41.630Z,17.70
2019-06-08T07:27:09.812Z,17.70
2019-06-08T07:29:36.940Z,17.80
2019-06-08T07:32:05.276Z,17.70
2019-06-08T07:34:33.718Z,17.80
2019-06-08T07:37:01.270Z,17.80
2019-06-08T07:39:28.299Z,17.80
2019-06-08T07:41:56.026Z,17.80
2019-06-08T07:44:23.613Z,17.80
2019-06-08T07:46:51.385Z,17.80
2019-06-08T07:49:18.806Z,17.80
2019-06-08T07:51:59.971Z,17.80
2019-06-08T07:54:15.362Z,17.90
2019-06-08T07:56:42.885Z,17.80
2019-06-08T07:59:10.314Z,17.80
2019-06-08T08:01:37.592Z,17.80
2019-06-08T08:04:06.178Z,17.80
2019-06-08T08:06:33.235Z,17.80
2019-06-08T08:09:00.690Z,17.90
2019-06-08T08:11:29.039Z,17.90
2019-06-08T08:13:57.486Z,17.80
2019-06-08T08:16:24.729Z,17.80
2019-06-08T08:18:53.337Z,17.80
2019-06-08T08:21:26.206Z,17.80
2019-06-08T08:23:53.209Z,17.90
2019-06-08T08:26:20.477Z,17.90
2019-06-08T08:28:49.984Z,17.90
2019-06-08T08:31:19.346Z,17.90
2019-06-08T08:33:49.772Z,17.90
2019-06-08T08:36:17.989Z,17.90
2019-06-08T08:38:47.827Z,17.90
2019-06-08T08:41:18.145Z,17.90
2019-06-08T08:43:45.021Z,17.90
2019-06-08T08:46:12.572Z,17.90
2019-06-08T08:48:40.018Z,17.90
2019-06-08T08:51:08.617Z,17.90
2019-06-08T08:53:37.508Z,18.00
2019-06-08T08:56:06.941Z,18.00
2019-06-08T08:58:34.134Z,18.10
2019-06-08T09:01:03.659Z,18.10
2019-06-08T09:03:33.596Z,18.00
2019-06-08T09:06:03.588Z,18.00
2019-06-08T09:08:30.110Z,18.10
2019-06-08T09:11:00.824Z,18.10
2019-06-08T09:13:28.127Z,18.30
2019-06-08T09:15:55.869Z,18.10
2019-06-08T09:18:23.083Z,18.10
2019-06-08T09:20:52.379Z,18.10
2019-06-08T09:23:21.960Z,18.10
2019-06-08T09:25:49.795Z,18.10
2019-06-08T09:28:18.680Z,18.20
2019-06-08T09:30:48.408Z,18.20
2019-06-08T09:33:18.602Z,18.20
2019-06-08T09:35:47.720Z,18.20
2019-06-08T09:38:14.489Z,18.20
2019-06-08T09:40:41.921Z,18.10
2019-06-08T09:43:13.040Z,18.20
2019-06-08T09:45:38.502Z,18.20
2019-06-08T09:48:09.142Z,18.20
2019-06-08T09:50:35.419Z,18.20
2019-06-08T09:53:22.348Z,18.20
2019-06-08T09:55:31.665Z,18.20
2019-06-08T09:58:04.004Z,18.30
2019-06-08T10:00:29.156Z,18.30
2019-06-08T10:03:00.642Z,18.30
2019-06-08T10:05:27.624Z,18.30
2019-06-08T10:07:56.954Z,18.30
2019-06-08T10:10:23.906Z,18.30
2019-06-08T10:12:51.065Z,18.30
2019-06-08T10:15:18.625Z,18.30
2019-06-08T10:17:47.635Z,18.30
2019-06-08T10:20:18.118Z,18.30
2019-06-08T10:22:44.053Z,18.40
2019-06-08T10:25:11.983Z,18.30
2019-06-08T10:27:39.906Z,18.40
2019-06-08T10:30:09.987Z,18.40
2019-06-08T10:32:38.268Z,18.40
2019-06-08T10:35:08.033Z,18.40
2019-06-08T10:37:35.065Z,18.40
2019-06-08T10:40:06.482Z,18.50
2019-06-08T10:42:34.145Z,18.40
2019-06-08T10:45:05.229Z,18.50
2019-06-08T10:47:30.678Z,18.50
2019-06-08T10:50:01.622Z,18.50
2019-06-08T10:52:28.184Z,18.50
2019-06-08T10:54:59.486Z,18.50
2019-06-08T10:57:27.879Z,18.50
2019-06-08T10:59:54.413Z,18.50
2019-06-08T11:02:21.658Z,18.50
2019-06-08T11:04:48.824Z,18.50
2019-06-08T11:07:16.678Z,18.50
2019-06-08T11:09:44.623Z,18.50
2019-06-08T11:12:15.078Z,18.50
2019-06-08T11:14:41.812Z,18.50
2019-06-08T11:17:11.012Z,18.50
2019-06-08T11:19:38.297Z,18.50
2019-06-08T11:22:11.798Z,18.50
2019-06-08T11:24:35.233Z,18.50
2019-06-08T11:27:03.519Z,18.50
2019-06-08T11:29:31.225Z,18.50
2019-06-08T11:31:59.826Z,18.50
2019-06-08T11:34:28.724Z,18.40
2019-06-08T11:36:59.060Z,18.50
2019-06-08T11:39:25.337Z,18.50
2019-06-08T11:41:52.901Z,18.50
2019-06-08T11:44:20.111Z,18.50
2019-06-08T11:46:47.839Z,18.60
2019-06-08T11:49:18.593Z,18.60
2019-06-08T11:51:47.692Z,18.60
2019-06-08T11:54:29.573Z,18.60
2019-06-08T11:56:44.302Z,18.60
2019-06-08T11:59:14.301Z,18.60
2019-06-08T12:01:41.266Z,18.60
2019-06-08T12:04:09.833Z,18.60
2019-06-08T12:06:37.773Z,18.60
2019-06-08T12:09:07.048Z,18.60
2019-06-08T12:11:34.769Z,18.60
2019-06-08T12:14:02.739Z,18.60
2019-06-08T12:16:30.634Z,18.60
2019-06-08T12:18:58.542Z,18.70
2019-06-08T12:21:27.397Z,18.70
2019-06-08T12:23:55.164Z,18.80
2019-06-08T12:26:22.411Z,18.80
2019-06-08T12:28:49.650Z,18.80
2019-06-08T12:31:22.064Z,18.90
2019-06-08T12:33:48.759Z,18.90
2019-06-08T12:36:19.809Z,18.90
2019-06-08T12:38:46.045Z,18.90
2019-06-08T12:41:14.132Z,19.00
2019-06-08T12:43:42.758Z,19.00
2019-06-08T12:46:12.591Z,19.00
2019-06-08T12:48:38.993Z,19.00
2019-06-08T12:51:08.584Z,19.00
2019-06-08T12:53:35.282Z,19.00
2019-06-08T12:56:02.653Z,19.10
2019-06-08T12:58:29.971Z,19.10
2019-06-08T13:00:57.991Z,19.10
2019-06-08T13:03:25.065Z,19.10
2019-06-08T13:05:52.406Z,19.10
2019-06-08T13:08:21.748Z,19.10
2019-06-08T13:10:49.349Z,19.20
2019-06-08T13:13:23.501Z,19.20
2019-06-08T13:15:47.959Z,19.30
2019-06-08T13:18:16.965Z,19.30
2019-06-08T13:20:45.369Z,19.40
2019-06-08T13:23:13.086Z,19.40
2019-06-08T13:25:43.927Z,19.50
2019-06-08T13:28:15.100Z,19.50
2019-06-08T13:30:39.938Z,19.50
2019-06-08T13:33:08.070Z,19.60
2019-06-08T13:35:35.580Z,19.70
2019-06-08T13:38:03.522Z,19.70
2019-06-08T13:40:31.318Z,19.80
2019-06-08T13:42:58.619Z,19.80
2019-06-08T13:45:27.869Z,19.90
2019-06-08T13:47:55.568Z,19.90
2019-06-08T13:50:24.015Z,19.90
2019-06-08T13:52:51.507Z,19.90
2019-06-08T13:55:36.658Z,19.90
2019-06-08T13:57:49.171Z,19.90
2019-06-08T14:00:21.015Z,19.90
2019-06-08T14:02:48.343Z,19.90
2019-06-08T14:05:25.707Z,19.90
2019-06-08T14:07:50.682Z,19.80
2019-06-08T14:10:23.934Z,19.80
2019-06-08T14:12:52.273Z,19.80
2019-06-08T14:15:21.373Z,19.80
2019-06-08T14:17:48.761Z,19.90
2019-06-08T14:20:22.717Z,20.00
2019-06-08T14:22:50.629Z,20.00
2019-06-08T14:25:20.077Z,20.10
2019-06-08T14:27:47.665Z,20.20
2019-06-08T14:30:14.996Z,20.20
2019-06-08T14:32:42.259Z,20.30
2019-06-08T14:35:09.746Z,20.50
2019-06-08T14:37:38.050Z,20.50
2019-06-08T14:40:08.178Z,20.50
2019-06-08T14:42:38.209Z,20.60
2019-06-08T14:45:04.927Z,20.50
2019-06-08T14:47:32.463Z,20.50
2019-06-08T14:50:01.826Z,20.40
2019-06-08T14:52:30.843Z,20.30
2019-06-08T14:54:58.729Z,20.30
2019-06-08T14:57:28.187Z,20.20
2019-06-08T14:59:59.834Z,20.20
2019-06-08T15:02:28.610Z,20.10
2019-06-08T15:04:58.343Z,20.00
2019-06-08T15:07:27.353Z,20.00
2019-06-08T15:09:58.009Z,19.90
2019-06-08T15:12:25.530Z,19.90
2019-06-08T15:14:53.312Z,19.80
2019-06-08T15:17:21.868Z,19.80
2019-06-08T15:19:49.173Z,19.70
2019-06-08T15:22:18.602Z,19.60
2019-06-08T15:24:47.765Z,19.50
2019-06-08T15:27:14.640Z,19.40
2019-06-08T15:29:42.005Z,19.30
2019-06-08T15:32:09.721Z,19.20
2019-06-08T15:34:38.218Z,19.10
2019-06-08T15:37:08.985Z,19.10
2019-06-08T15:39:35.575Z,19.10
2019-06-08T15:42:02.900Z,19.10
2019-06-08T15:44:30.746Z,19.10
2019-06-08T15:47:00.330Z,19.30
2019-06-08T15:49:30.421Z,19.40
2019-06-08T15:51:57.927Z,19.50
2019-06-08T15:54:29.019Z,19.50
2019-06-08T15:56:55.487Z,19.50
2019-06-08T15:59:23.166Z,19.50
2019-06-08T16:01:50.617Z,19.40
2019-06-08T16:04:18.174Z,19.40
2019-06-08T16:06:45.579Z,19.30
2019-06-08T16:09:13.111Z,19.20
2019-06-08T16:11:40.264Z,19.10
2019-06-08T16:14:07.977Z,19.00
2019-06-08T16:16:35.275Z,18.90
2019-06-08T16:19:02.637Z,18.90
2019-06-08T16:21:31.744Z,18.80
2019-06-08T16:23:59.083Z,18.70
2019-06-08T16:26:27.769Z,18.60
2019-06-08T16:28:55.446Z,18.60
2019-06-08T16:31:22.721Z,18.50
2019-06-08T16:33:51.133Z,18.60
2019-06-08T16:36:18.800Z,18.70
2019-06-08T16:38:46.322Z,18.70
2019-06-08T16:41:14.034Z,18.80
2019-06-08T16:43:41.990Z,18.70
2019-06-08T16:46:09.343Z,18.70
2019-06-08T16:48:36.396Z,18.70
2019-06-08T16:51:04.246Z,18.70
2019-06-08T16:53:32.455Z,18.70
2019-06-08T16:56:00.925Z,18.70
2019-06-08T16:58:28.442Z,18.60
2019-06-08T17:00:55.609Z,18.60
2019-06-08T17:03:23.232Z,18.60
2019-06-08T17:05:50.644Z,18.60
2019-06-08T17:08:17.952Z,18.50
2019-06-08T17:10:45.463Z,18.50
2019-06-08T17:13:12.998Z,18.50
2019-06-08T17:15:40.468Z,18.40
2019-06-08T17:18:08.850Z,18.40
2019-06-08T17:20:36.288Z,18.40
2019-06-08T17:23:03.578Z,18.50
2019-06-08T17:25:30.878Z,18.50
2019-06-08T17:27:59.070Z,18.50
2019-06-08T17:30:26.738Z,18.60
2019-06-08T17:32:54.329Z,18.60
2019-06-08T17:35:21.658Z,18.60
2019-06-08T17:37:49.514Z,18.60
2019-06-08T17:40:16.792Z,18.60
2019-06-08T17:42:44.184Z,18.60
2019-06-08T17:45:11.467Z,18.60
2019-06-08T17:47:40.571Z,18.70
2019-06-08T17:50:08.271Z,18.70
2019-06-08T17:52:36.920Z,18.70
2019-06-08T17:55:04.905Z,18.70
2019-06-08T17:57:42.330Z,18.80
2019-06-08T18:00:01.612Z,18.80
2019-06-08T18:02:31.502Z,18.80
2019-06-08T18:04:58.575Z,18.80
2019-06-08T18:07:27.752Z,18.80
2019-06-08T18:09:57.558Z,18.80
2019-06-08T18:12:27.036Z,18.80
2019-06-08T18:14:54.474Z,18.80
2019-06-08T18:17:22.011Z,18.80
2019-06-08T18:19:49.907Z,18.80
2019-06-08T18:22:18.623Z,18.80
2019-06-08T18:24:47.901Z,18.90
2019-06-08T18:27:18.028Z,18.80
2019-06-08T18:32:27.901Z,18.90
2019-06-08T18:34:57.275Z,18.80
2019-06-08T18:37:25.188Z,18.70
2019-06-08T18:39:52.933Z,18.90
2019-06-08T18:42:20.502Z,18.90
2019-06-08T18:44:48.693Z,18.90
2019-06-08T18:47:17.801Z,18.90
2019-06-08T18:49:46.251Z,18.90
2019-06-08T18:52:17.465Z,19.00
2019-06-08T18:54:49.206Z,19.00
2019-06-08T18:57:17.516Z,19.00
2019-06-08T18:59:48.666Z,19.00
2019-06-08T19:02:14.102Z,19.00
2019-06-08T19:04:41.784Z,19.00
2019-06-08T19:07:09.765Z,19.00
2019-06-08T19:09:40.870Z,19.00
2019-06-08T19:12:09.070Z,19.00
2019-06-08T19:14:38.958Z,19.00
2019-06-08T19:17:07.542Z,19.00
2019-06-08T19:19:38.561Z,19.00
2019-06-08T19:22:04.571Z,19.00
2019-06-08T19:24:32.074Z,19.00
2019-06-08T19:26:59.992Z,18.90
2019-06-08T19:29:28.095Z,18.90
2019-06-08T19:31:57.277Z,18.90
2019-06-08T19:34:29.055Z,18.90
2019-06-08T19:36:57.187Z,18.90
2019-06-08T19:39:25.118Z,18.90
2019-06-08T19:41:52.322Z,18.90
2019-06-08T19:44:19.652Z,18.80
2019-06-08T19:46:47.564Z,18.80
2019-06-08T19:49:17.517Z,18.90
2019-06-08T19:51:47.920Z,18.90
2019-06-08T19:54:14.886Z,18.80
2019-06-08T19:56:43.295Z,18.80
2019-06-08T19:59:10.822Z,18.80
2019-06-08T20:01:39.549Z,18.70
2019-06-08T20:04:07.717Z,18.80
2019-06-08T20:17:20.075Z,18.70
2019-06-08T20:19:49.485Z,18.60
2019-06-08T20:22:18.268Z,18.60
2019-06-08T20:24:46.993Z,18.60
2019-06-08T20:27:17.261Z,18.60
2019-06-08T20:29:45.863Z,18.60
2019-06-08T20:32:13.823Z,18.50
2019-06-08T20:34:40.897Z,18.50
2019-06-08T20:37:08.230Z,18.50
2019-06-08T20:39:38.000Z,18.40
2019-06-08T20:42:04.469Z,18.40
2019-06-08T20:44:31.991Z,18.40
2019-06-08T20:46:59.784Z,18.40
2019-06-08T20:49:27.902Z,18.40
2019-06-08T20:51:57.066Z,18.40
2019-06-08T20:54:24.277Z,18.30
2019-06-08T20:56:53.314Z,18.40
2019-06-08T20:59:30.160Z,18.30
2019-06-08T21:01:52.198Z,18.30
2019-06-08T21:04:18.924Z,18.30
2019-06-08T21:06:48.679Z,18.30
2019-06-08T21:09:18.507Z,18.30
2019-06-08T21:11:49.353Z,18.30
2019-06-08T21:14:17.326Z,18.20
2019-06-08T21:16:44.643Z,18.20
2019-06-08T21:19:12.118Z,18.20
2019-06-08T21:21:40.029Z,18.20
2019-06-08T21:24:07.891Z,18.20
2019-06-08T21:26:35.046Z,18.20
2019-06-08T21:29:02.524Z,18.20
2019-06-08T21:31:29.778Z,18.10
2019-06-08T21:34:00.687Z,18.10
2019-06-08T21:36:26.782Z,18.10
2019-06-08T21:38:59.398Z,18.10
2019-06-08T21:41:23.847Z,18.10
2019-06-08T21:43:54.245Z,18.10
2019-06-08T21:46:20.388Z,18.00
2019-06-08T21:48:50.218Z,18.00
2019-06-08T21:51:17.661Z,18.00
2019-06-08T21:53:47.006Z,18.00
2019-06-08T21:56:14.092Z,18.00
2019-06-08T21:58:41.293Z,18.00
2019-06-08T22:01:09.181Z,17.90
2019-06-08T22:03:38.115Z,17.90
2019-06-08T22:06:07.839Z,17.90
2019-06-08T22:08:37.395Z,17.90
2019-06-08T22:11:04.101Z,17.90
2019-06-08T22:13:31.579Z,17.90
2019-06-08T22:16:02.101Z,17.90
2019-06-08T22:18:28.590Z,17.80
2019-06-08T22:20:58.214Z,17.90
2019-06-08T22:23:24.891Z,17.80
2019-06-08T22:25:53.471Z,17.80
2019-06-08T22:28:21.072Z,17.80
2019-06-08T22:30:48.590Z,17.80
2019-06-08T22:33:17.578Z,17.80
2019-06-08T22:35:47.776Z,17.80
2019-06-08T22:38:17.574Z,17.80
2019-06-08T22:40:44.445Z,17.80
2019-06-08T22:43:11.431Z,17.80
2019-06-08T22:45:38.776Z,17.80
2019-06-08T22:48:08.240Z,17.80
2019-06-08T22:50:38.049Z,17.80
2019-06-08T22:53:04.799Z,17.80
2019-06-08T22:55:32.549Z,17.70
2019-06-08T22:58:01.473Z,17.70
2019-06-08T23:00:28.749Z,17.70
2019-06-08T23:02:59.319Z,17.70
2019-06-08T23:05:27.724Z,17.70
2019-06-08T23:07:55.750Z,17.70
2019-06-08T23:10:23.680Z,17.70
2019-06-08T23:12:50.793Z,17.70
2019-06-08T23:15:18.418Z,17.70
2019-06-08T23:17:47.940Z,17.60
2019-06-08T23:20:15.286Z,17.60
2019-06-08T23:22:42.290Z,17.60
2019-06-08T23:25:27.982Z,17.60
2019-06-08T23:27:56.262Z,17.60
2019-06-08T23:30:23.758Z,17.60
2019-06-08T23:32:51.398Z,17.60
2019-06-08T23:35:18.966Z,17.60
2019-06-08T23:37:47.779Z,17.50
2019-06-08T23:40:17.757Z,17.60
2019-06-08T23:42:44.687Z,17.50
2019-06-08T23:45:12.129Z,17.50
2019-06-08T23:47:39.583Z,17.50
2019-06-08T23:50:10.070Z,17.50
2019-06-08T23:52:38.241Z,17.50
2019-06-08T23:55:09.726Z,17.50
2019-06-08T23:57:37.897Z,17.50
